Estación Meteorológica Peña el Pijo (Robertgarden) [ 01/30/23 15:36:49 CET ]

Fecha Hora Presion(HPa) Temp (°C) Humedad % Rocio (°C) Viento ( m/s) Direccion Lluvia 1Hora(mm) Lluvia 24H(mm) LLuvia Total(mm)
2010-Jan-16 01:01:16 1015.100 1.9 75 -2.1         66.30
2010-Jan-16 02:03:18 1014.900 2.3 73 -2.1         66.30
2010-Jan-16 03:01:13 1015.000 1.9 77 -1.7         66.30
2010-Jan-16 04:01:12 1014.400 1.9 79 -1.4         66.30
2010-Jan-16 05:01:12 1013.400 2.1 79 -1.2         66.30
2010-Jan-16 06:01:16 1013.500 2.8 77 -0.8         66.30
2010-Jan-16 07:01:15 1013.700 3.6 71 -1.2         66.30
2010-Jan-16 08:01:17 1014.100 3.3 73 -1.1         66.30
2010-Jan-16 09:01:16 1014.400 2.7 76 -1.1         66.30
2010-Jan-16 10:01:13 1015.000 4.7 74 0.4         66.30
2010-Jan-16 11:01:16 1015.200 12.9 59 5.0         66.30
2010-Jan-16 12:01:19 1014.800 13.6 56 5.0         66.30
2010-Jan-16 13:01:12 1014.700 14.4 58 6.2         66.30
2010-Jan-16 14:01:16 1013.400 14.9 58 6.7         66.30
2010-Jan-16 15:01:18 1013.400 14.4 56 5.7 3.1 SSE     66.30
2010-Jan-16 16:01:16 1013.400 13.4 58 5.3         66.30
2010-Jan-16 17:01:12 1013.800 12.4 59 4.6         66.30
2010-Jan-16 18:01:12 1014.000 11.5 61 4.2         66.30
2010-Jan-16 19:01:18 1014.300 10.6 65 4.3         66.30
2010-Jan-16 20:01:17 1014.400 10.1 68 4.5         66.30
2010-Jan-16 21:01:12 1014.400 9.6 70 4.4         66.30
2010-Jan-16 22:01:14 1015.600 8.8 72 4.0         66.30
2010-Jan-16 23:01:17 1015.700 7.6 75 3.5         66.30

Temperatura Máxima:14°    Temperatura Mínima:
Presión Máxima:1015.700 Hpa    Presión Mínima:1013.400 Hpa


Volver